Elnora, New York
Current Conditions -  °F | °C
As of 6:51 AM on Thursday 23 Oct 2014 (Local Time) from KALB Reporting Station
Light Rain Light Rain  
Wind Chill: 42°   Ceiling: 900
Heat Index: 46°   Visibility: 5mi
Dew Point: 43°   Wind: 8mph
Humidity: 89%   Direction: 20°NNE
Pressure: 29.87"   Gusts: NA
Location:  42.8536°N, 73.7851°W
Report Text: KALB 231051Z 02007KT 5SM -RA BR OVC009 08/06 A2987 RMK AO2 CIG 007V012 SLP115 P0018 T00780061
Loading
Personal Weather Stations






























Interactive Weather Map
Tropical Storm Tracking
New forecast layout! Learn more

10-Day Weather Forecast

Advertisements
Track Severe Weather on mobile